KILN/ILN METAR and TAF weather

Enter ICAO airport designator
Station Type Date Time Source
KILN METAR 2022/01/26 12:54 UTC NOAA

KILN 261254Z AUTO 31007KT 10SM CLR M15/M19 A3043 RMK AO2 SLP347 T11501189


Station Type Date Time Source
KILN Decoded METAR 2022/01/26 12:54 UTC NOAA

WILMINGTON INDUSTRIAL AIRPORT , OH, United States (KILN) 39-26N 083-47W 332M
Jan 26, 2022 - 07:54 AM EST / 2022.01.26 1254 UTC
Wind: from the NW (310 degrees) at 8 MPH (7 KT):0
Visibility: 10 mile(s):0
Sky conditions: clear
Temperature: 5.0 F (-15.0 C)
Windchill: -7 F (-22 C):2
Dew Point: -2.0 F (-18.9 C)
Relative Humidity: 72%
Pressure (altimeter): 30.43 in. Hg (1030 hPa)
ob: KILN 261254Z AUTO 31007KT 10SM CLR M15/M19 A3043 RMK AO2 SLP347 T11501189
cycle: 13

Station Type Date Time Source
KILN TAF 2022/01/26 12:24 UTC NOAA

TAF KILN 261121Z 2612/2712 31005KT P6SM FEW250
FM270400 17005KT P6SM SKC

Example: see airport list